sensor_id;sensor_type;location;lat;lon;timestamp;P1;durP1;ratioP1;P2;durP2;ratioP2
33190;SDS011;19554;42.652;23.364;2022-11-27T00:00:06;50.58;;;27.85;;
33190;SDS011;19554;42.652;23.364;2022-11-27T00:02:32;41.97;;;24.48;;
33190;SDS011;19554;42.652;23.364;2022-11-27T00:04:59;39.95;;;25.60;;
33190;SDS011;19554;42.652;23.364;2022-11-27T00:07:24;42.85;;;23.95;;
33190;SDS011;19554;42.652;23.364;2022-11-27T00:09:49;39.63;;;24.92;;
33190;SDS011;19554;42.652;23.364;2022-11-27T00:12:15;34.83;;;22.05;;
33190;SDS011;19554;42.652;23.364;2022-11-27T00:14:40;41.22;;;23.27;;
33190;SDS011;19554;42.652;23.364;2022-11-27T00:17:05;39.08;;;23.63;;
33190;SDS011;19554;42.652;23.364;2022-11-27T00:19:31;35.92;;;21.80;;
33190;SDS011;19554;42.652;23.364;2022-11-27T00:21:57;39.83;;;23.83;;
33190;SDS011;19554;42.652;23.364;2022-11-27T00:24:22;41.60;;;24.42;;
33190;SDS011;19554;42.652;23.364;2022-11-27T00:26:48;41.25;;;25.33;;
33190;SDS011;19554;42.652;23.364;2022-11-27T00:29:13;66.10;;;28.50;;
33190;SDS011;19554;42.652;23.364;2022-11-27T00:31:39;62.35;;;29.13;;
33190;SDS011;19554;42.652;23.364;2022-11-27T00:34:05;49.33;;;25.98;;
33190;SDS011;19554;42.652;23.364;2022-11-27T00:36:32;43.88;;;24.85;;
33190;SDS011;19554;42.652;23.364;2022-11-27T00:38:59;42.00;;;24.55;;
33190;SDS011;19554;42.652;23.364;2022-11-27T00:41:26;43.80;;;24.40;;
33190;SDS011;19554;42.652;23.364;2022-11-27T00:43:53;39.65;;;23.83;;
33190;SDS011;19554;42.652;23.364;2022-11-27T00:46:20;43.20;;;25.90;;
33190;SDS011;19554;42.652;23.364;2022-11-27T00:48:48;40.25;;;25.52;;
33190;SDS011;19554;42.652;23.364;2022-11-27T00:51:14;40.67;;;23.63;;
33190;SDS011;19554;42.652;23.364;2022-11-27T00:53:44;45.53;;;24.33;;
33190;SDS011;19554;42.652;23.364;2022-11-27T00:56:14;41.05;;;24.20;;
33190;SDS011;19554;42.652;23.364;2022-11-27T00:58:41;38.22;;;24.50;;
33190;SDS011;19554;42.652;23.364;2022-11-27T01:01:06;38.33;;;23.30;;
33190;SDS011;19554;42.652;23.364;2022-11-27T01:03:32;41.70;;;25.30;;
33190;SDS011;19554;42.652;23.364;2022-11-27T01:06:02;42.97;;;26.00;;
33190;SDS011;19554;42.652;23.364;2022-11-27T01:08:28;42.55;;;24.75;;
33190;SDS011;19554;42.652;23.364;2022-11-27T01:10:54;40.97;;;25.40;;
33190;SDS011;19554;42.652;23.364;2022-11-27T01:13:28;39.30;;;22.95;;
33190;SDS011;19554;42.652;23.364;2022-11-27T01:15:59;38.15;;;24.65;;
33190;SDS011;19554;42.652;23.364;2022-11-27T01:18:25;43.35;;;26.15;;
33190;SDS011;19554;42.652;23.364;2022-11-27T01:20:51;44.20;;;26.52;;
33190;SDS011;19554;42.652;23.364;2022-11-27T01:23:17;49.03;;;27.85;;
33190;SDS011;19554;42.652;23.364;2022-11-27T01:25:43;46.58;;;26.85;;
33190;SDS011;19554;42.652;23.364;2022-11-27T01:28:08;48.67;;;27.00;;
33190;SDS011;19554;42.652;23.364;2022-11-27T01:30:36;50.47;;;26.52;;
33190;SDS011;19554;42.652;23.364;2022-11-27T01:33:01;37.90;;;24.23;;
33190;SDS011;19554;42.652;23.364;2022-11-27T01:35:27;41.55;;;24.13;;
33190;SDS011;19554;42.652;23.364;2022-11-27T01:37:52;46.90;;;28.42;;
33190;SDS011;19554;42.652;23.364;2022-11-27T01:40:18;45.05;;;24.80;;
33190;SDS011;19554;42.652;23.364;2022-11-27T01:42:43;42.72;;;26.88;;
33190;SDS011;19554;42.652;23.364;2022-11-27T01:45:09;50.35;;;28.50;;
33190;SDS011;19554;42.652;23.364;2022-11-27T01:47:37;49.30;;;28.80;;
33190;SDS011;19554;42.652;23.364;2022-11-27T01:50:09;49.97;;;28.35;;
33190;SDS011;19554;42.652;23.364;2022-11-27T01:52:41;45.45;;;29.08;;
33190;SDS011;19554;42.652;23.364;2022-11-27T01:55:30;55.75;;;31.50;;
33190;SDS011;19554;42.652;23.364;2022-11-27T01:58:01;53.10;;;32.60;;
33190;SDS011;19554;42.652;23.364;2022-11-27T02:00:32;50.20;;;29.30;;
33190;SDS011;19554;42.652;23.364;2022-11-27T02:02:58;63.28;;;34.92;;
33190;SDS011;19554;42.652;23.364;2022-11-27T02:05:25;58.53;;;32.75;;
33190;SDS011;19554;42.652;23.364;2022-11-27T02:07:52;53.22;;;30.00;;
33190;SDS011;19554;42.652;23.364;2022-11-27T02:10:19;51.53;;;32.25;;
33190;SDS011;19554;42.652;23.364;2022-11-27T02:12:56;56.70;;;31.83;;
33190;SDS011;19554;42.652;23.364;2022-11-27T02:15:36;61.30;;;34.17;;
33190;SDS011;19554;42.652;23.364;2022-11-27T02:21:00;54.40;;;32.72;;
33190;SDS011;19554;42.652;23.364;2022-11-27T02:29:24;49.33;;;31.42;;
33190;SDS011;19554;42.652;23.364;2022-11-27T02:37:20;55.78;;;33.38;;
33190;SDS011;19554;42.652;23.364;2022-11-27T02:40:00;51.67;;;31.08;;
33190;SDS011;19554;42.652;23.364;2022-11-27T02:42:27;54.83;;;31.33;;
33190;SDS011;19554;42.652;23.364;2022-11-27T02:45:02;56.10;;;31.58;;
33190;SDS011;19554;42.652;23.364;2022-11-27T02:47:30;50.60;;;30.30;;
33190;SDS011;19554;42.652;23.364;2022-11-27T02:49:56;50.92;;;29.90;;
33190;SDS011;19554;42.652;23.364;2022-11-27T02:52:23;53.03;;;31.55;;
33190;SDS011;19554;42.652;23.364;2022-11-27T02:54:53;53.85;;;30.88;;
33190;SDS011;19554;42.652;23.364;2022-11-27T02:57:22;54.22;;;29.70;;
33190;SDS011;19554;42.652;23.364;2022-11-27T02:59:50;51.78;;;28.45;;
33190;SDS011;19554;42.652;23.364;2022-11-27T03:02:25;46.70;;;27.08;;
33190;SDS011;19554;42.652;23.364;2022-11-27T03:04:54;50.42;;;29.75;;
33190;SDS011;19554;42.652;23.364;2022-11-27T03:08:10;53.70;;;30.85;;
33190;SDS011;19554;42.652;23.364;2022-11-27T03:10:17;44.47;;;27.42;;
33190;SDS011;19554;42.652;23.364;2022-11-27T03:12:47;52.60;;;29.77;;
33190;SDS011;19554;42.652;23.364;2022-11-27T03:15:13;51.28;;;29.67;;
33190;SDS011;19554;42.652;23.364;2022-11-27T03:17:51;46.38;;;24.05;;
33190;SDS011;19554;42.652;23.364;2022-11-27T03:20:22;44.38;;;26.02;;
33190;SDS011;19554;42.652;23.364;2022-11-27T03:22:51;53.13;;;29.73;;
33190;SDS011;19554;42.652;23.364;2022-11-27T03:25:18;47.05;;;30.50;;
33190;SDS011;19554;42.652;23.364;2022-11-27T03:28:00;49.67;;;28.67;;
33190;SDS011;19554;42.652;23.364;2022-11-27T03:30:27;49.42;;;29.40;;
33190;SDS011;19554;42.652;23.364;2022-11-27T03:32:53;50.78;;;28.70;;
33190;SDS011;19554;42.652;23.364;2022-11-27T03:35:20;54.60;;;29.30;;
33190;SDS011;19554;42.652;23.364;2022-11-27T03:37:49;50.63;;;28.52;;
33190;SDS011;19554;42.652;23.364;2022-11-27T03:40:15;48.20;;;28.73;;
33190;SDS011;19554;42.652;23.364;2022-11-27T03:42:57;60.63;;;30.75;;
33190;SDS011;19554;42.652;23.364;2022-11-27T03:45:37;54.13;;;30.35;;
33190;SDS011;19554;42.652;23.364;2022-11-27T03:48:09;52.00;;;28.17;;
33190;SDS011;19554;42.652;23.364;2022-11-27T04:01:28;49.42;;;28.20;;
33190;SDS011;19554;42.652;23.364;2022-11-27T04:03:55;42.58;;;25.73;;
33190;SDS011;19554;42.652;23.364;2022-11-27T04:06:20;58.47;;;28.95;;
33190;SDS011;19554;42.652;23.364;2022-11-27T04:08:46;50.97;;;28.50;;
33190;SDS011;19554;42.652;23.364;2022-11-27T04:11:12;49.63;;;28.77;;
33190;SDS011;19554;42.652;23.364;2022-11-27T04:13:38;47.78;;;27.90;;
33190;SDS011;19554;42.652;23.364;2022-11-27T04:16:04;56.05;;;29.55;;
33190;SDS011;19554;42.652;23.364;2022-11-27T04:18:29;53.92;;;30.92;;
33190;SDS011;19554;42.652;23.364;2022-11-27T04:20:55;58.17;;;31.02;;
33190;SDS011;19554;42.652;23.364;2022-11-27T04:23:21;57.03;;;30.73;;
33190;SDS011;19554;42.652;23.364;2022-11-27T04:25:47;58.22;;;31.50;;
33190;SDS011;19554;42.652;23.364;2022-11-27T04:28:12;57.25;;;31.73;;
33190;SDS011;19554;42.652;23.364;2022-11-27T04:30:38;63.38;;;33.65;;
33190;SDS011;19554;42.652;23.364;2022-11-27T04:33:03;60.50;;;32.65;;
33190;SDS011;19554;42.652;23.364;2022-11-27T04:35:29;57.70;;;32.50;;
33190;SDS011;19554;42.652;23.364;2022-11-27T04:37:57;62.22;;;36.15;;
33190;SDS011;19554;42.652;23.364;2022-11-27T04:40:22;59.95;;;36.58;;
33190;SDS011;19554;42.652;23.364;2022-11-27T04:42:48;60.40;;;35.30;;
33190;SDS011;19554;42.652;23.364;2022-11-27T04:45:14;64.40;;;35.25;;
33190;SDS011;19554;42.652;23.364;2022-11-27T04:47:40;59.30;;;33.38;;
33190;SDS011;19554;42.652;23.364;2022-11-27T04:50:05;60.00;;;34.55;;
33190;SDS011;19554;42.652;23.364;2022-11-27T04:52:32;56.53;;;33.08;;
33190;SDS011;19554;42.652;23.364;2022-11-27T04:54:57;55.70;;;32.80;;
33190;SDS011;19554;42.652;23.364;2022-11-27T04:57:22;55.80;;;30.67;;
33190;SDS011;19554;42.652;23.364;2022-11-27T04:59:48;52.13;;;30.60;;
33190;SDS011;19554;42.652;23.364;2022-11-27T05:02:13;50.05;;;30.38;;
33190;SDS011;19554;42.652;23.364;2022-11-27T05:04:38;46.67;;;29.95;;
33190;SDS011;19554;42.652;23.364;2022-11-27T05:07:04;55.92;;;30.45;;
33190;SDS011;19554;42.652;23.364;2022-11-27T05:09:29;54.90;;;29.65;;
33190;SDS011;19554;42.652;23.364;2022-11-27T05:11:55;54.80;;;30.67;;
33190;SDS011;19554;42.652;23.364;2022-11-27T05:14:20;57.67;;;31.85;;
33190;SDS011;19554;42.652;23.364;2022-11-27T05:16:51;53.00;;;31.42;;
33190;SDS011;19554;42.652;23.364;2022-11-27T05:19:19;49.53;;;30.63;;
33190;SDS011;19554;42.652;23.364;2022-11-27T05:21:46;59.33;;;32.38;;
33190;SDS011;19554;42.652;23.364;2022-11-27T05:24:12;65.65;;;34.13;;
33190;SDS011;19554;42.652;23.364;2022-11-27T05:26:38;70.63;;;37.92;;
33190;SDS011;19554;42.652;23.364;2022-11-27T05:29:04;62.42;;;35.47;;
33190;SDS011;19554;42.652;23.364;2022-11-27T05:31:30;60.80;;;37.00;;
33190;SDS011;19554;42.652;23.364;2022-11-27T05:33:56;61.88;;;37.30;;
33190;SDS011;19554;42.652;23.364;2022-11-27T05:36:21;64.32;;;36.92;;
33190;SDS011;19554;42.652;23.364;2022-11-27T05:38:47;64.30;;;37.28;;
33190;SDS011;19554;42.652;23.364;2022-11-27T05:41:12;65.15;;;35.92;;
33190;SDS011;19554;42.652;23.364;2022-11-27T05:43:38;58.53;;;34.30;;
33190;SDS011;19554;42.652;23.364;2022-11-27T05:46:07;59.13;;;34.05;;
33190;SDS011;19554;42.652;23.364;2022-11-27T05:48:34;61.33;;;34.25;;
33190;SDS011;19554;42.652;23.364;2022-11-27T05:51:00;61.03;;;33.72;;
33190;SDS011;19554;42.652;23.364;2022-11-27T05:53:26;62.88;;;36.20;;
33190;SDS011;19554;42.652;23.364;2022-11-27T05:55:51;58.53;;;34.03;;
33190;SDS011;19554;42.652;23.364;2022-11-27T05:58:17;61.80;;;32.00;;
33190;SDS011;19554;42.652;23.364;2022-11-27T06:00:43;55.67;;;32.75;;
33190;SDS011;19554;42.652;23.364;2022-11-27T06:03:09;56.97;;;31.85;;
33190;SDS011;19554;42.652;23.364;2022-11-27T06:05:37;61.60;;;33.65;;
33190;SDS011;19554;42.652;23.364;2022-11-27T06:08:04;59.05;;;34.40;;
33190;SDS011;19554;42.652;23.364;2022-11-27T06:10:29;59.83;;;32.97;;
33190;SDS011;19554;42.652;23.364;2022-11-27T06:12:55;61.47;;;35.47;;
33190;SDS011;19554;42.652;23.364;2022-11-27T06:15:20;64.60;;;34.97;;
33190;SDS011;19554;42.652;23.364;2022-11-27T06:17:47;64.15;;;36.50;;
33190;SDS011;19554;42.652;23.364;2022-11-27T06:20:13;70.10;;;38.53;;
33190;SDS011;19554;42.652;23.364;2022-11-27T06:22:39;71.32;;;38.28;;
33190;SDS011;19554;42.652;23.364;2022-11-27T06:25:04;72.35;;;39.75;;
33190;SDS011;19554;42.652;23.364;2022-11-27T06:27:33;69.05;;;39.45;;
33190;SDS011;19554;42.652;23.364;2022-11-27T06:30:00;71.75;;;40.28;;
33190;SDS011;19554;42.652;23.364;2022-11-27T06:32:26;71.45;;;39.65;;
33190;SDS011;19554;42.652;23.364;2022-11-27T06:34:52;77.75;;;41.83;;
33190;SDS011;19554;42.652;23.364;2022-11-27T06:37:17;69.68;;;38.67;;
33190;SDS011;19554;42.652;23.364;2022-11-27T06:39:42;72.30;;;39.97;;
33190;SDS011;19554;42.652;23.364;2022-11-27T06:42:08;71.72;;;40.35;;
33190;SDS011;19554;42.652;23.364;2022-11-27T06:44:33;68.43;;;40.22;;
33190;SDS011;19554;42.652;23.364;2022-11-27T06:46:59;68.32;;;37.72;;
33190;SDS011;19554;42.652;23.364;2022-11-27T06:49:24;68.65;;;38.85;;
33190;SDS011;19554;42.652;23.364;2022-11-27T06:51:50;75.25;;;41.08;;
33190;SDS011;19554;42.652;23.364;2022-11-27T06:54:15;68.28;;;38.92;;
33190;SDS011;19554;42.652;23.364;2022-11-27T06:56:41;65.78;;;38.88;;
33190;SDS011;19554;42.652;23.364;2022-11-27T06:59:06;69.60;;;37.45;;
33190;SDS011;19554;42.652;23.364;2022-11-27T07:01:32;72.07;;;40.28;;
33190;SDS011;19554;42.652;23.364;2022-11-27T07:03:58;71.50;;;40.15;;
33190;SDS011;19554;42.652;23.364;2022-11-27T07:06:24;70.60;;;38.05;;
33190;SDS011;19554;42.652;23.364;2022-11-27T07:08:51;69.28;;;38.70;;
33190;SDS011;19554;42.652;23.364;2022-11-27T07:11:21;69.07;;;39.10;;
33190;SDS011;19554;42.652;23.364;2022-11-27T07:13:49;75.60;;;39.47;;
33190;SDS011;19554;42.652;23.364;2022-11-27T07:16:15;78.93;;;42.63;;
33190;SDS011;19554;42.652;23.364;2022-11-27T07:18:43;85.30;;;44.90;;
33190;SDS011;19554;42.652;23.364;2022-11-27T07:21:10;88.50;;;45.40;;
33190;SDS011;19554;42.652;23.364;2022-11-27T07:23:36;93.72;;;47.17;;
33190;SDS011;19554;42.652;23.364;2022-11-27T07:26:06;92.30;;;47.90;;
33190;SDS011;19554;42.652;23.364;2022-11-27T07:28:32;90.43;;;48.97;;
33190;SDS011;19554;42.652;23.364;2022-11-27T07:30:58;86.63;;;47.60;;
33190;SDS011;19554;42.652;23.364;2022-11-27T07:33:24;85.72;;;48.65;;
33190;SDS011;19554;42.652;23.364;2022-11-27T07:35:56;83.07;;;46.78;;
33190;SDS011;19554;42.652;23.364;2022-11-27T07:38:27;84.97;;;46.78;;
33190;SDS011;19554;42.652;23.364;2022-11-27T07:40:53;83.50;;;47.10;;
33190;SDS011;19554;42.652;23.364;2022-11-27T07:43:18;88.97;;;51.22;;
33190;SDS011;19554;42.652;23.364;2022-11-27T07:45:43;89.38;;;49.40;;
33190;SDS011;19554;42.652;23.364;2022-11-27T07:48:09;89.70;;;49.03;;
33190;SDS011;19554;42.652;23.364;2022-11-27T07:50:34;90.78;;;48.22;;
33190;SDS011;19554;42.652;23.364;2022-11-27T07:53:00;88.25;;;49.22;;
33190;SDS011;19554;42.652;23.364;2022-11-27T07:55:25;87.15;;;46.92;;
33190;SDS011;19554;42.652;23.364;2022-11-27T07:57:50;88.82;;;47.78;;
33190;SDS011;19554;42.652;23.364;2022-11-27T08:00:16;93.85;;;50.00;;
33190;SDS011;19554;42.652;23.364;2022-11-27T08:02:42;86.95;;;45.63;;
33190;SDS011;19554;42.652;23.364;2022-11-27T08:05:07;84.85;;;46.50;;
33190;SDS011;19554;42.652;23.364;2022-11-27T08:07:33;96.40;;;52.67;;
33190;SDS011;19554;42.652;23.364;2022-11-27T08:09:58;87.55;;;46.72;;
33190;SDS011;19554;42.652;23.364;2022-11-27T08:12:24;80.88;;;45.17;;
33190;SDS011;19554;42.652;23.364;2022-11-27T08:14:50;81.43;;;45.90;;
33190;SDS011;19554;42.652;23.364;2022-11-27T08:17:16;81.90;;;44.75;;
33190;SDS011;19554;42.652;23.364;2022-11-27T08:19:41;84.85;;;45.20;;
33190;SDS011;19554;42.652;23.364;2022-11-27T08:22:14;86.07;;;46.15;;
33190;SDS011;19554;42.652;23.364;2022-11-27T08:24:43;78.40;;;43.33;;
33190;SDS011;19554;42.652;23.364;2022-11-27T08:27:09;76.13;;;43.00;;
33190;SDS011;19554;42.652;23.364;2022-11-27T08:29:35;81.57;;;41.63;;
33190;SDS011;19554;42.652;23.364;2022-11-27T08:32:01;76.30;;;39.90;;
33190;SDS011;19554;42.652;23.364;2022-11-27T08:34:26;71.47;;;39.85;;
33190;SDS011;19554;42.652;23.364;2022-11-27T08:36:52;76.53;;;41.78;;
33190;SDS011;19554;42.652;23.364;2022-11-27T08:39:17;77.15;;;41.42;;
33190;SDS011;19554;42.652;23.364;2022-11-27T08:41:43;78.57;;;41.40;;
33190;SDS011;19554;42.652;23.364;2022-11-27T08:44:09;71.05;;;39.65;;
33190;SDS011;19554;42.652;23.364;2022-11-27T08:46:34;80.05;;;41.65;;
33190;SDS011;19554;42.652;23.364;2022-11-27T08:48:59;75.22;;;38.88;;
33190;SDS011;19554;42.652;23.364;2022-11-27T08:51:25;65.90;;;38.53;;
33190;SDS011;19554;42.652;23.364;2022-11-27T08:53:51;74.75;;;42.10;;
33190;SDS011;19554;42.652;23.364;2022-11-27T08:56:18;69.80;;;39.60;;
33190;SDS011;19554;42.652;23.364;2022-11-27T08:58:45;73.10;;;39.35;;
33190;SDS011;19554;42.652;23.364;2022-11-27T09:01:13;77.35;;;37.50;;
33190;SDS011;19554;42.652;23.364;2022-11-27T09:03:43;73.93;;;40.88;;
33190;SDS011;19554;42.652;23.364;2022-11-27T09:06:10;73.53;;;40.28;;
33190;SDS011;19554;42.652;23.364;2022-11-27T09:08:38;70.03;;;37.47;;
33190;SDS011;19554;42.652;23.364;2022-11-27T09:11:04;64.43;;;37.17;;
33190;SDS011;19554;42.652;23.364;2022-11-27T09:13:31;74.90;;;39.65;;
33190;SDS011;19554;42.652;23.364;2022-11-27T09:15:57;66.63;;;37.38;;
33190;SDS011;19554;42.652;23.364;2022-11-27T09:18:23;61.08;;;35.72;;
33190;SDS011;19554;42.652;23.364;2022-11-27T09:21:22;63.92;;;36.63;;
33190;SDS011;19554;42.652;23.364;2022-11-27T09:23:41;69.13;;;36.25;;
33190;SDS011;19554;42.652;23.364;2022-11-27T09:26:08;61.60;;;35.00;;
33190;SDS011;19554;42.652;23.364;2022-11-27T09:28:36;64.15;;;36.42;;
33190;SDS011;19554;42.652;23.364;2022-11-27T09:31:03;62.67;;;37.45;;
33190;SDS011;19554;42.652;23.364;2022-11-27T09:33:30;62.05;;;35.63;;
33190;SDS011;19554;42.652;23.364;2022-11-27T09:35:57;63.15;;;37.80;;
33190;SDS011;19554;42.652;23.364;2022-11-27T09:38:26;64.95;;;37.55;;
33190;SDS011;19554;42.652;23.364;2022-11-27T09:40:54;67.85;;;35.60;;
33190;SDS011;19554;42.652;23.364;2022-11-27T09:43:28;63.30;;;35.45;;
33190;SDS011;19554;42.652;23.364;2022-11-27T09:46:00;54.85;;;33.13;;
33190;SDS011;19554;42.652;23.364;2022-11-27T09:48:33;56.95;;;33.92;;
33190;SDS011;19554;42.652;23.364;2022-11-27T09:53:58;56.53;;;32.15;;
33190;SDS011;19554;42.652;23.364;2022-11-27T09:56:26;54.88;;;32.33;;
33190;SDS011;19554;42.652;23.364;2022-11-27T09:58:56;62.47;;;34.97;;
33190;SDS011;19554;42.652;23.364;2022-11-27T10:01:27;58.80;;;34.22;;
33190;SDS011;19554;42.652;23.364;2022-11-27T10:03:57;51.63;;;31.63;;
33190;SDS011;19554;42.652;23.364;2022-11-27T10:25:16;54.90;;;29.73;;
33190;SDS011;19554;42.652;23.364;2022-11-27T10:30:38;46.87;;;27.00;;
33190;SDS011;19554;42.652;23.364;2022-11-27T10:36:44;46.53;;;27.58;;
33190;SDS011;19554;42.652;23.364;2022-11-27T10:39:14;42.83;;;24.25;;
33190;SDS011;19554;42.652;23.364;2022-11-27T10:41:53;48.35;;;27.60;;
33190;SDS011;19554;42.652;23.364;2022-11-27T10:44:30;51.95;;;28.98;;
33190;SDS011;19554;42.652;23.364;2022-11-27T10:47:03;47.63;;;29.58;;
33190;SDS011;19554;42.652;23.364;2022-11-27T10:49:31;47.17;;;27.63;;
33190;SDS011;19554;42.652;23.364;2022-11-27T10:51:59;39.80;;;25.77;;
33190;SDS011;19554;42.652;23.364;2022-11-27T10:54:26;45.75;;;27.52;;
33190;SDS011;19554;42.652;23.364;2022-11-27T10:59:38;52.38;;;30.88;;
33190;SDS011;19554;42.652;23.364;2022-11-27T11:02:34;50.47;;;29.85;;
33190;SDS011;19554;42.652;23.364;2022-11-27T11:07:37;54.25;;;31.65;;
33190;SDS011;19554;42.652;23.364;2022-11-27T11:10:05;44.83;;;27.67;;
33190;SDS011;19554;42.652;23.364;2022-11-27T11:12:47;50.28;;;29.15;;
33190;SDS011;19554;42.652;23.364;2022-11-27T11:15:13;49.00;;;27.95;;
33190;SDS011;19554;42.652;23.364;2022-11-27T11:17:39;51.75;;;29.42;;
33190;SDS011;19554;42.652;23.364;2022-11-27T11:20:20;44.13;;;26.95;;
33190;SDS011;19554;42.652;23.364;2022-11-27T11:22:47;49.58;;;30.35;;
33190;SDS011;19554;42.652;23.364;2022-11-27T11:25:19;51.05;;;29.13;;
33190;SDS011;19554;42.652;23.364;2022-11-27T11:27:45;39.78;;;24.02;;
33190;SDS011;19554;42.652;23.364;2022-11-27T11:30:21;45.33;;;26.67;;
33190;SDS011;19554;42.652;23.364;2022-11-27T11:32:50;51.38;;;30.77;;
33190;SDS011;19554;42.652;23.364;2022-11-27T11:35:33;40.67;;;25.10;;
33190;SDS011;19554;42.652;23.364;2022-11-27T11:38:00;44.53;;;25.42;;
33190;SDS011;19554;42.652;23.364;2022-11-27T11:40:33;48.08;;;28.50;;
33190;SDS011;19554;42.652;23.364;2022-11-27T11:43:04;48.00;;;28.98;;
33190;SDS011;19554;42.652;23.364;2022-11-27T11:45:42;47.38;;;28.58;;
33190;SDS011;19554;42.652;23.364;2022-11-27T11:48:22;48.65;;;26.52;;
33190;SDS011;19554;42.652;23.364;2022-11-27T11:50:52;36.72;;;22.10;;
33190;SDS011;19554;42.652;23.364;2022-11-27T11:53:41;44.13;;;25.95;;
33190;SDS011;19554;42.652;23.364;2022-11-27T11:58:54;54.17;;;29.15;;
33190;SDS011;19554;42.652;23.364;2022-11-27T12:01:28;31.63;;;18.17;;
33190;SDS011;19554;42.652;23.364;2022-11-27T12:07:22;38.45;;;22.75;;
33190;SDS011;19554;42.652;23.364;2022-11-27T12:12:52;31.05;;;18.45;;
33190;SDS011;19554;42.652;23.364;2022-11-27T12:15:59;36.00;;;20.75;;
33190;SDS011;19554;42.652;23.364;2022-11-27T12:29:21;30.42;;;19.80;;
33190;SDS011;19554;42.652;23.364;2022-11-27T12:32:07;29.73;;;18.38;;
33190;SDS011;19554;42.652;23.364;2022-11-27T12:38:09;28.42;;;16.75;;
33190;SDS011;19554;42.652;23.364;2022-11-27T12:40:44;30.95;;;18.05;;
33190;SDS011;19554;42.652;23.364;2022-11-27T12:43:25;33.25;;;18.75;;
33190;SDS011;19554;42.652;23.364;2022-11-27T12:48:45;34.30;;;18.20;;
33190;SDS011;19554;42.652;23.364;2022-11-27T12:51:33;37.35;;;20.13;;
33190;SDS011;19554;42.652;23.364;2022-11-27T12:54:14;33.67;;;19.67;;
33190;SDS011;19554;42.652;23.364;2022-11-27T12:56:48;34.03;;;19.00;;
33190;SDS011;19554;42.652;23.364;2022-11-27T13:00:03;33.03;;;19.25;;
33190;SDS011;19554;42.652;23.364;2022-11-27T13:02:20;31.50;;;18.45;;
33190;SDS011;19554;42.652;23.364;2022-11-27T13:07:27;36.60;;;20.08;;
33190;SDS011;19554;42.652;23.364;2022-11-27T13:13:01;37.60;;;19.17;;
33190;SDS011;19554;42.652;23.364;2022-11-27T13:18:31;32.83;;;19.95;;
33190;SDS011;19554;42.652;23.364;2022-11-27T13:21:01;34.60;;;20.08;;
33190;SDS011;19554;42.652;23.364;2022-11-27T13:23:30;40.78;;;21.15;;
33190;SDS011;19554;42.652;23.364;2022-11-27T13:25:56;37.97;;;21.75;;
33190;SDS011;19554;42.652;23.364;2022-11-27T13:29:12;41.75;;;21.05;;
33190;SDS011;19554;42.652;23.364;2022-11-27T13:31:26;35.88;;;21.45;;
33190;SDS011;19554;42.652;23.364;2022-11-27T13:34:02;38.30;;;21.40;;
33190;SDS011;19554;42.652;23.364;2022-11-27T13:37:17;37.70;;;21.60;;
33190;SDS011;19554;42.652;23.364;2022-11-27T13:39:43;40.45;;;22.50;;
33190;SDS011;19554;42.652;23.364;2022-11-27T13:44:38;41.13;;;21.70;;
33190;SDS011;19554;42.652;23.364;2022-11-27T13:47:11;40.13;;;21.70;;
33190;SDS011;19554;42.652;23.364;2022-11-27T13:49:40;36.15;;;20.65;;
33190;SDS011;19554;42.652;23.364;2022-11-27T13:52:14;32.80;;;20.90;;
33190;SDS011;19554;42.652;23.364;2022-11-27T13:54:55;35.72;;;21.30;;
33190;SDS011;19554;42.652;23.364;2022-11-27T13:57:22;30.95;;;21.08;;
33190;SDS011;19554;42.652;23.364;2022-11-27T14:02:45;33.70;;;20.27;;
33190;SDS011;19554;42.652;23.364;2022-11-27T14:05:13;34.97;;;19.33;;
33190;SDS011;19554;42.652;23.364;2022-11-27T14:07:44;34.42;;;18.85;;
33190;SDS011;19554;42.652;23.364;2022-11-27T14:12:55;28.90;;;17.05;;
33190;SDS011;19554;42.652;23.364;2022-11-27T14:15:26;28.75;;;16.33;;
33190;SDS011;19554;42.652;23.364;2022-11-27T14:18:02;26.38;;;16.08;;
33190;SDS011;19554;42.652;23.364;2022-11-27T14:20:29;26.00;;;14.85;;
33190;SDS011;19554;42.652;23.364;2022-11-27T14:22:59;26.95;;;15.05;;
33190;SDS011;19554;42.652;23.364;2022-11-27T14:25:26;32.97;;;20.25;;
33190;SDS011;19554;42.652;23.364;2022-11-27T14:28:01;41.65;;;21.73;;
33190;SDS011;19554;42.652;23.364;2022-11-27T14:30:44;40.33;;;20.63;;
33190;SDS011;19554;42.652;23.364;2022-11-27T14:33:22;32.42;;;18.58;;
33190;SDS011;19554;42.652;23.364;2022-11-27T14:35:48;31.52;;;18.83;;
33190;SDS011;19554;42.652;23.364;2022-11-27T14:38:15;30.67;;;17.63;;
33190;SDS011;19554;42.652;23.364;2022-11-27T14:40:41;22.65;;;13.27;;
33190;SDS011;19554;42.652;23.364;2022-11-27T14:43:16;22.23;;;14.38;;
33190;SDS011;19554;42.652;23.364;2022-11-27T14:45:45;23.58;;;13.10;;
33190;SDS011;19554;42.652;23.364;2022-11-27T14:48:21;20.30;;;11.88;;
33190;SDS011;19554;42.652;23.364;2022-11-27T14:50:49;16.80;;;10.40;;
33190;SDS011;19554;42.652;23.364;2022-11-27T14:53:17;21.52;;;9.80;;
33190;SDS011;19554;42.652;23.364;2022-11-27T14:55:45;17.33;;;8.68;;
33190;SDS011;19554;42.652;23.364;2022-11-27T14:58:17;15.48;;;8.70;;
33190;SDS011;19554;42.652;23.364;2022-11-27T15:00:54;16.83;;;8.45;;
33190;SDS011;19554;42.652;23.364;2022-11-27T15:03:23;13.45;;;7.68;;
33190;SDS011;19554;42.652;23.364;2022-11-27T15:05:59;13.45;;;8.38;;
33190;SDS011;19554;42.652;23.364;2022-11-27T15:08:27;12.05;;;6.40;;
33190;SDS011;19554;42.652;23.364;2022-11-27T15:10:56;10.25;;;6.20;;
33190;SDS011;19554;42.652;23.364;2022-11-27T15:13:26;13.10;;;6.68;;
33190;SDS011;19554;42.652;23.364;2022-11-27T15:16:12;9.77;;;6.07;;
33190;SDS011;19554;42.652;23.364;2022-11-27T15:18:41;9.82;;;5.72;;
33190;SDS011;19554;42.652;23.364;2022-11-27T15:21:15;9.70;;;5.28;;
33190;SDS011;19554;42.652;23.364;2022-11-27T15:23:44;8.60;;;5.10;;
33190;SDS011;19554;42.652;23.364;2022-11-27T15:26:13;11.40;;;5.97;;
33190;SDS011;19554;42.652;23.364;2022-11-27T15:28:53;14.02;;;6.28;;
33190;SDS011;19554;42.652;23.364;2022-11-27T15:31:22;13.38;;;6.93;;
33190;SDS011;19554;42.652;23.364;2022-11-27T15:33:55;12.57;;;6.18;;
33190;SDS011;19554;42.652;23.364;2022-11-27T15:36:25;14.93;;;7.63;;
33190;SDS011;19554;42.652;23.364;2022-11-27T15:39:08;13.80;;;7.13;;
33190;SDS011;19554;42.652;23.364;2022-11-27T15:42:10;16.17;;;6.97;;
33190;SDS011;19554;42.652;23.364;2022-11-27T15:44:36;13.02;;;6.70;;
33190;SDS011;19554;42.652;23.364;2022-11-27T15:47:02;16.50;;;6.93;;
33190;SDS011;19554;42.652;23.364;2022-11-27T15:49:29;11.40;;;5.53;;
33190;SDS011;19554;42.652;23.364;2022-11-27T15:51:55;13.25;;;6.20;;
33190;SDS011;19554;42.652;23.364;2022-11-27T15:54:21;15.88;;;7.18;;
33190;SDS011;19554;42.652;23.364;2022-11-27T15:56:46;17.08;;;7.15;;
33190;SDS011;19554;42.652;23.364;2022-11-27T15:59:12;11.65;;;6.43;;
33190;SDS011;19554;42.652;23.364;2022-11-27T16:01:38;14.57;;;7.20;;
33190;SDS011;19554;42.652;23.364;2022-11-27T16:04:04;12.57;;;7.40;;